createdAt,value
2023-01-19T00:00:55.656Z,93502.28
2023-01-19T00:03:23.494Z,93511.16
2023-01-19T00:05:51.350Z,93517.09
2023-01-19T00:08:18.766Z,93516.41
2023-01-19T00:10:51.102Z,93514.94
2023-01-19T00:13:18.265Z,93506.69
2023-01-19T00:15:45.959Z,93508.56
2023-01-19T00:18:12.979Z,93511.44
2023-01-19T00:20:41.873Z,93513.34
2023-01-19T00:23:09.403Z,93508.31
2023-01-19T00:25:42.574Z,93519.72
2023-01-19T00:28:15.514Z,93515.66
2023-01-19T00:30:44.520Z,93512.75
2023-01-19T00:33:16.027Z,93518.53
2023-01-19T00:35:43.751Z,93524.16
2023-01-19T00:38:13.691Z,93528.34
2023-01-19T00:40:40.800Z,93526.75
2023-01-19T00:43:08.047Z,93531.13
2023-01-19T00:45:35.747Z,93531.13
2023-01-19T00:48:03.100Z,93529.50
2023-01-19T00:50:32.034Z,93528.03
2023-01-19T00:53:03.812Z,93530.44
2023-01-19T00:55:33.266Z,93528.47
2023-01-19T00:58:00.383Z,93531.41
2023-01-19T01:00:27.525Z,93529.00
2023-01-19T01:02:55.000Z,93534.50
2023-01-19T01:05:22.409Z,93538.22
2023-01-19T01:07:49.821Z,93541.00
2023-01-19T01:10:24.936Z,93538.75
2023-01-19T01:12:54.873Z,93530.19
2023-01-19T01:15:26.453Z,93534.53
2023-01-19T01:17:54.233Z,93531.16
2023-01-19T01:20:27.977Z,93525.22
2023-01-19T01:22:56.674Z,93515.84
2023-01-19T01:25:26.311Z,93511.63
2023-01-19T01:27:54.280Z,93516.81
2023-01-19T01:30:22.154Z,93516.00
2023-01-19T01:32:49.528Z,93525.53
2023-01-19T01:35:17.229Z,93523.75
2023-01-19T01:37:44.633Z,93517.00
2023-01-19T01:40:17.623Z,93529.38
2023-01-19T01:42:45.688Z,93518.88
2023-01-19T01:45:29.931Z,93519.16
2023-01-19T01:48:02.276Z,93517.50
2023-01-19T01:50:33.026Z,93517.00
2023-01-19T01:53:07.981Z,93525.81
2023-01-19T01:55:46.908Z,93535.66
2023-01-19T01:58:16.297Z,93540.31
2023-01-19T02:01:02.341Z,93532.03
2023-01-19T02:03:29.735Z,93525.34
2023-01-19T02:06:00.885Z,93530.97
2023-01-19T02:09:00.764Z,93524.47
2023-01-19T02:11:48.253Z,93528.50
2023-01-19T02:14:15.383Z,93525.72
2023-01-19T02:16:42.955Z,93521.97
2023-01-19T02:19:17.520Z,93510.66
2023-01-19T02:22:11.806Z,93505.66
2023-01-19T02:24:39.191Z,93517.31
2023-01-19T02:27:08.245Z,93510.72
2023-01-19T02:29:35.709Z,93500.09
2023-01-19T02:32:03.171Z,93501.59
2023-01-19T02:34:30.701Z,93512.31
2023-01-19T02:36:59.302Z,93512.50
2023-01-19T02:39:39.382Z,93507.66
2023-01-19T02:42:32.486Z,93507.00
2023-01-19T02:44:59.999Z,93511.72
2023-01-19T02:47:26.976Z,93504.97
2023-01-19T02:50:00.943Z,93505.13
2023-01-19T02:52:28.573Z,93508.69
2023-01-19T02:55:05.736Z,93501.94
2023-01-19T02:57:43.643Z,93498.53
2023-01-19T03:00:28.812Z,93495.16
2023-01-19T03:03:40.292Z,93502.63
2023-01-19T03:06:24.268Z,93504.56
2023-01-19T03:09:04.617Z,93506.97
2023-01-19T03:11:39.769Z,93506.47
2023-01-19T03:14:18.142Z,93505.13
2023-01-19T03:16:55.625Z,93513.00
2023-01-19T03:19:34.106Z,93516.50
2023-01-19T03:22:06.607Z,93525.34
2023-01-19T03:24:40.003Z,93531.59
2023-01-19T03:27:15.065Z,93528.94
2023-01-19T03:29:48.878Z,93532.44
2023-01-19T03:32:19.643Z,93540.47
2023-01-19T03:34:48.824Z,93547.72
2023-01-19T03:37:17.878Z,93548.19
2023-01-19T03:39:45.359Z,93552.66
2023-01-19T03:42:16.267Z,93558.44
2023-01-19T03:44:45.591Z,93563.28
2023-01-19T03:47:15.143Z,93559.53
2023-01-19T03:49:45.544Z,93554.16
2023-01-19T03:52:12.861Z,93552.84
2023-01-19T03:54:41.011Z,93552.84
2023-01-19T03:57:08.315Z,93555.44
2023-01-19T03:59:35.609Z,93544.44
2023-01-19T04:02:03.019Z,93550.41
2023-01-19T04:04:30.214Z,93562.38
2023-01-19T04:06:57.762Z,93560.44
2023-01-19T04:09:25.742Z,93572.72
2023-01-19T04:11:53.051Z,93585.69
2023-01-19T04:14:20.681Z,93599.44
2023-01-19T04:16:47.758Z,93601.84
2023-01-19T04:19:14.922Z,93600.88
2023-01-19T04:21:42.246Z,93605.53
2023-01-19T04:24:10.679Z,93603.72
2023-01-19T04:26:37.732Z,93608.38
2023-01-19T04:29:05.602Z,93622.94
2023-01-19T04:31:33.017Z,93641.88
2023-01-19T04:34:00.095Z,93623.75
2023-01-19T04:36:27.575Z,93637.50
2023-01-19T04:38:54.849Z,93642.69
2023-01-19T04:41:22.125Z,93644.13
2023-01-19T04:43:49.412Z,93654.47
2023-01-19T04:46:16.495Z,93656.88
2023-01-19T04:48:43.598Z,93650.09
2023-01-19T04:51:10.577Z,93657.84
2023-01-19T04:53:37.625Z,93663.69
2023-01-19T04:56:04.990Z,93658.50
2023-01-19T04:58:31.992Z,93667.25
2023-01-19T05:00:59.525Z,93678.75
2023-01-19T05:03:26.997Z,93682.97
2023-01-19T05:05:54.352Z,93688.16
2023-01-19T05:08:21.687Z,93694.56
2023-01-19T05:10:48.578Z,93695.41
2023-01-19T05:13:15.645Z,93701.38
2023-01-19T05:15:42.779Z,93695.22
2023-01-19T05:18:09.837Z,93691.81
2023-01-19T05:20:36.772Z,93688.41
2023-01-19T05:23:04.058Z,93686.00
2023-01-19T05:25:31.200Z,93697.16
2023-01-19T05:27:58.315Z,93687.16
2023-01-19T05:30:25.434Z,93693.13
2023-01-19T05:32:52.486Z,93692.34
2023-01-19T05:35:27.764Z,93697.06
2023-01-19T05:37:58.790Z,93702.41
2023-01-19T05:40:26.144Z,93709.19
2023-01-19T05:42:53.267Z,93703.84
2023-01-19T05:45:20.373Z,93704.03
2023-01-19T05:47:47.639Z,93706.59
2023-01-19T05:50:14.817Z,93710.81
2023-01-19T05:52:41.847Z,93714.38
2023-01-19T05:55:09.411Z,93712.16
2023-01-19T05:57:36.439Z,93703.75
2023-01-19T06:00:05.409Z,93705.34
2023-01-19T06:02:36.170Z,93703.56
2023-01-19T06:05:04.466Z,93703.38
2023-01-19T06:07:31.999Z,93704.03
2023-01-19T06:09:59.289Z,93699.66
2023-01-19T06:12:26.937Z,93704.66
2023-01-19T06:14:53.962Z,93704.84
2023-01-19T06:17:21.011Z,93711.00
2023-01-19T06:19:48.131Z,93713.13
2023-01-19T06:22:15.311Z,93723.81
2023-01-19T06:24:42.476Z,93719.78
2023-01-19T06:27:09.576Z,93722.56
2023-01-19T06:29:36.589Z,93728.72
2023-01-19T06:32:04.002Z,93729.50
2023-01-19T06:34:31.067Z,93733.91
2023-01-19T06:36:59.127Z,93732.09
2023-01-19T06:39:27.459Z,93740.69
2023-01-19T06:41:54.788Z,93757.00
2023-01-19T06:44:22.555Z,93759.97
2023-01-19T06:46:49.603Z,93761.72
2023-01-19T06:49:16.602Z,93759.97
2023-01-19T06:51:43.647Z,93771.13
2023-01-19T06:54:10.902Z,93774.84
2023-01-19T06:56:37.884Z,93787.97
2023-01-19T06:59:05.967Z,93786.19
2023-01-19T07:01:33.341Z,93794.59
2023-01-19T07:04:00.401Z,93799.13
2023-01-19T07:06:27.586Z,93793.94
2023-01-19T07:08:54.822Z,93786.81
2023-01-19T07:11:30.514Z,93781.47
2023-01-19T07:13:57.640Z,93789.88
2023-01-19T07:16:25.007Z,93782.28
2023-01-19T07:18:52.078Z,93778.09
2023-01-19T07:21:19.437Z,93780.69
2023-01-19T07:23:52.587Z,93780.81
2023-01-19T07:26:21.383Z,93781.66
2023-01-19T07:28:48.960Z,93778.59
2023-01-19T07:31:16.909Z,93783.13
2023-01-19T07:33:44.702Z,93773.94
2023-01-19T07:36:12.141Z,93788.03
2023-01-19T07:38:39.051Z,93786.41
2023-01-19T07:41:09.752Z,93786.59
2023-01-19T07:43:36.937Z,93786.75
2023-01-19T07:46:06.508Z,93789.81
2023-01-19T07:48:33.568Z,93784.97
2023-01-19T07:51:10.394Z,93790.97
2023-01-19T07:53:39.963Z,93791.13
2023-01-19T07:56:07.963Z,93801.66
2023-01-19T07:58:35.047Z,93801.00
2023-01-19T08:01:10.383Z,93804.22
2023-01-19T08:03:37.893Z,93807.16
2023-01-19T08:06:05.757Z,93802.63
2023-01-19T08:08:34.415Z,93817.19
2023-01-19T08:11:01.357Z,93812.66
2023-01-19T08:13:28.341Z,93816.50
2023-01-19T08:15:55.307Z,93820.69
2023-01-19T08:18:22.478Z,93811.78
2023-01-19T08:20:49.510Z,93826.34
2023-01-19T08:23:18.024Z,93819.56
2023-01-19T08:25:45.882Z,93814.06
2023-01-19T08:28:15.561Z,93819.84
2023-01-19T08:30:44.827Z,93812.91
2023-01-19T08:33:14.441Z,93812.38
2023-01-19T08:35:47.157Z,93813.00
2023-01-19T08:38:14.614Z,93810.88
2023-01-19T08:40:42.482Z,93817.16
2023-01-19T08:43:14.656Z,93812.75
2023-01-19T08:45:48.080Z,93818.66
2023-01-19T08:48:23.339Z,93820.56
2023-01-19T08:50:51.806Z,93820.38
2023-01-19T08:53:23.067Z,93822.97
2023-01-19T08:55:55.342Z,93825.22
2023-01-19T08:58:22.339Z,93825.94
2023-01-19T09:00:52.445Z,93833.56
2023-01-19T09:03:22.549Z,93840.88
2023-01-19T09:05:49.695Z,93841.22
2023-01-19T09:08:16.885Z,93847.38
2023-01-19T09:10:49.737Z,93845.16
2023-01-19T09:13:18.738Z,93844.31
2023-01-19T09:15:46.332Z,93840.31
2023-01-19T09:18:17.615Z,93846.13
2023-01-19T09:20:47.861Z,93850.81
2023-01-19T09:23:18.183Z,93850.25
2023-01-19T09:25:47.167Z,93861.25
2023-01-19T09:28:17.600Z,93850.63
2023-01-19T09:30:45.255Z,93856.09
2023-01-19T09:33:17.653Z,93859.13
2023-01-19T09:35:47.378Z,93867.03
2023-01-19T09:38:16.707Z,93860.81
2023-01-19T09:40:49.848Z,93858.97
2023-01-19T09:43:58.340Z,93864.91
2023-01-19T09:46:41.421Z,93850.63
2023-01-19T09:49:27.588Z,93851.88
2023-01-19T09:51:55.135Z,93851.38
2023-01-19T09:54:47.964Z,93856.38
2023-01-19T09:57:15.086Z,93849.41
2023-01-19T09:59:43.886Z,93851.03
2023-01-19T10:02:46.474Z,93836.34
2023-01-19T10:05:30.816Z,93837.69
2023-01-19T10:08:10.310Z,93839.84
2023-01-19T10:10:40.767Z,93831.41
2023-01-19T10:13:42.435Z,93824.28
2023-01-19T10:17:06.752Z,93823.56
2023-01-19T10:19:42.349Z,93822.13
2023-01-19T10:22:28.523Z,93827.94
2023-01-19T10:24:59.403Z,93838.47
2023-01-19T10:27:32.047Z,93833.63
2023-01-19T10:30:00.829Z,93836.38
2023-01-19T10:32:39.065Z,93828.19
2023-01-19T10:35:23.423Z,93828.19
2023-01-19T10:37:58.559Z,93828.00
2023-01-19T10:40:43.122Z,93832.34
2023-01-19T10:43:34.844Z,93829.16
2023-01-19T10:46:22.949Z,93834.94
2023-01-19T10:48:52.621Z,93831.38
2023-01-19T10:51:20.694Z,93826.19
2023-01-19T10:53:58.487Z,93832.22
2023-01-19T10:56:34.362Z,93826.19
2023-01-19T10:59:04.882Z,93817.63
2023-01-19T11:01:36.845Z,93827.81
2023-01-19T11:04:28.817Z,93825.03
2023-01-19T11:07:27.296Z,93819.84
2023-01-19T11:10:16.199Z,93823.28
2023-01-19T11:12:52.351Z,93823.88
2023-01-19T11:15:24.811Z,93830.06
2023-01-19T11:17:53.610Z,93832.47
2023-01-19T11:20:26.308Z,93834.63
2023-01-19T11:23:29.115Z,93839.81
2023-01-19T11:26:01.570Z,93833.19
2023-01-19T11:28:38.039Z,93840.13
2023-01-19T11:31:11.086Z,93838.97
2023-01-19T11:33:52.268Z,93832.03
2023-01-19T11:36:24.361Z,93820.69
2023-01-19T11:38:57.617Z,93810.13
2023-01-19T11:41:37.318Z,93809.78
2023-01-19T11:44:29.961Z,93809.09
2023-01-19T11:47:06.765Z,93825.09
2023-01-19T11:49:57.664Z,93822.50
2023-01-19T11:52:34.845Z,93836.59
2023-01-19T11:55:23.490Z,93824.34
2023-01-19T11:57:54.409Z,93821.66
2023-01-19T12:00:43.653Z,93827.81
2023-01-19T12:03:41.384Z,93831.56
2023-01-19T12:06:29.947Z,93828.00
2023-01-19T12:09:17.694Z,93828.59
2023-01-19T12:11:53.527Z,93835.78
2023-01-19T12:14:35.347Z,93832.03
2023-01-19T12:17:06.036Z,93841.22
2023-01-19T12:20:27.314Z,93835.59
2023-01-19T12:23:36.060Z,93833.78
2023-01-19T12:26:38.147Z,93832.22
2023-01-19T12:29:21.743Z,93835.13
2023-01-19T12:32:13.456Z,93834.16
2023-01-19T12:34:46.511Z,93830.22
2023-01-19T12:37:31.235Z,93834.25
2023-01-19T12:40:03.984Z,93837.66
2023-01-19T12:42:31.533Z,93833.63
2023-01-19T12:45:14.216Z,93834.25
2023-01-19T12:47:53.065Z,93835.41
2023-01-19T12:50:24.151Z,93828.59
2023-01-19T12:52:57.365Z,93834.78
2023-01-19T12:55:31.133Z,93834.94
2023-01-19T12:58:07.831Z,93829.75
2023-01-19T13:00:38.443Z,93834.16
2023-01-19T13:03:25.423Z,93833.19
2023-01-19T13:05:57.339Z,93835.13
2023-01-19T13:08:28.231Z,93836.63
2023-01-19T13:11:07.848Z,93835.81
2023-01-19T13:13:38.420Z,93832.44
2023-01-19T13:16:20.986Z,93833.56
2023-01-19T13:19:14.967Z,93835.38
2023-01-19T13:21:48.308Z,93829.84
2023-01-19T13:24:24.122Z,93831.63
2023-01-19T13:26:51.531Z,93840.03
2023-01-19T13:29:38.141Z,93842.81
2023-01-19T13:32:13.848Z,93839.56
2023-01-19T13:34:48.896Z,93844.56
2023-01-19T13:37:21.236Z,93838.94
2023-01-19T13:39:51.887Z,93843.66
2023-01-19T13:42:29.982Z,93844.00
2023-01-19T13:45:02.058Z,93850.97
2023-01-19T13:47:45.476Z,93849.72
2023-01-19T13:50:39.470Z,93848.28
2023-01-19T13:53:21.232Z,93861.22
2023-01-19T13:55:48.716Z,93860.41
2023-01-19T13:58:23.711Z,93853.97
2023-01-19T14:00:50.817Z,93866.13
2023-01-19T14:03:24.173Z,93862.53
2023-01-19T14:05:54.998Z,93865.13
2023-01-19T14:08:23.027Z,93862.38
2023-01-19T14:11:00.069Z,93864.16
2023-01-19T14:13:31.332Z,93862.53
2023-01-19T14:16:25.383Z,93871.44
2023-01-19T14:19:04.519Z,93869.53
2023-01-19T14:21:40.778Z,93865.19
2023-01-19T14:24:19.896Z,93869.06
2023-01-19T14:27:18.988Z,93873.19
2023-01-19T14:29:49.928Z,93876.09
2023-01-19T14:32:21.692Z,93873.84
2023-01-19T14:35:13.439Z,93873.03
2023-01-19T14:37:49.861Z,93884.72
2023-01-19T14:40:20.874Z,93889.06
2023-01-19T14:42:57.550Z,93880.03
2023-01-19T14:45:36.077Z,93891.53
2023-01-19T14:48:18.177Z,93895.59
2023-01-19T14:51:02.041Z,93896.28
2023-01-19T14:53:36.750Z,93891.44
2023-01-19T14:56:06.408Z,93897.59
2023-01-19T14:58:35.942Z,93895.97
2023-01-19T15:01:04.610Z,93896.16
2023-01-19T15:03:44.193Z,93898.09
2023-01-19T15:06:19.653Z,93899.22
2023-01-19T15:08:49.953Z,93899.41
2023-01-19T15:11:22.679Z,93909.91
2023-01-19T15:13:51.133Z,93914.28
2023-01-19T15:16:19.204Z,93919.63
2023-01-19T15:18:46.423Z,93917.38
2023-01-19T15:21:23.825Z,93922.84
2023-01-19T15:23:50.996Z,93926.91
2023-01-19T15:26:21.174Z,93930.63
2023-01-19T15:28:49.224Z,93931.63
2023-01-19T15:31:22.508Z,93926.75
2023-01-19T15:33:50.171Z,93926.94
2023-01-19T15:36:21.828Z,93931.47
2023-01-19T15:38:51.015Z,93945.03
2023-01-19T15:41:27.432Z,93935.84
2023-01-19T15:43:54.749Z,93943.59
2023-01-19T15:46:23.728Z,93948.91
2023-01-19T15:48:51.566Z,93948.13
2023-01-19T15:51:21.826Z,93952.63
2023-01-19T15:53:50.580Z,93959.59
2023-01-19T15:56:24.489Z,93959.78
2023-01-19T15:58:53.498Z,93959.78
2023-01-19T16:01:23.844Z,93969.31
2023-01-19T16:03:51.246Z,93964.31
2023-01-19T16:06:18.678Z,93974.66
2023-01-19T16:08:45.791Z,93971.09
2023-01-19T16:11:15.535Z,93973.03
2023-01-19T16:13:46.248Z,93976.44
2023-01-19T16:16:20.513Z,93987.75
2023-01-19T16:18:48.171Z,93982.59
2023-01-19T16:21:15.645Z,93986.94
2023-01-19T16:23:42.763Z,93984.50
2023-01-19T16:26:34.883Z,93991.63
2023-01-19T16:29:10.708Z,93995.16
2023-01-19T16:31:39.307Z,93998.75
2023-01-19T16:34:06.678Z,94000.34
2023-01-19T16:36:37.500Z,94007.31
2023-01-19T16:39:09.297Z,94006.66
2023-01-19T16:41:36.855Z,94007.47
2023-01-19T16:44:04.621Z,94008.28
2023-01-19T16:46:35.586Z,94010.06
2023-01-19T16:49:13.102Z,94009.25
2023-01-19T16:51:40.220Z,94016.38
2023-01-19T16:54:07.333Z,94012.97
2023-01-19T16:56:34.501Z,94021.69
2023-01-19T16:59:01.465Z,94021.53
2023-01-19T17:01:29.519Z,94025.91
2023-01-19T17:03:56.934Z,94027.69
2023-01-19T17:06:24.983Z,94027.84
2023-01-19T17:08:53.209Z,94032.03
2023-01-19T17:11:24.835Z,94038.19
2023-01-19T17:14:16.277Z,94039.31
2023-01-19T17:16:44.518Z,94044.63
2023-01-19T17:19:17.290Z,94043.69
2023-01-19T17:21:49.402Z,94037.84
2023-01-19T17:24:17.340Z,94044.81
2023-01-19T17:26:45.940Z,94045.59
2023-01-19T17:29:13.357Z,94041.25
2023-01-19T17:31:40.670Z,94043.69
2023-01-19T17:34:09.555Z,94041.25
2023-01-19T17:36:36.659Z,94056.91
2023-01-19T17:39:08.899Z,94064.69
2023-01-19T17:41:36.329Z,94063.72
2023-01-19T17:44:05.558Z,94056.13
2023-01-19T17:46:37.347Z,94061.28
2023-01-19T17:49:07.068Z,94058.88
2023-01-19T17:51:34.651Z,94057.75
2023-01-19T17:54:02.105Z,94060.50
2023-01-19T17:56:33.461Z,94062.09
2023-01-19T17:59:00.467Z,94066.47
2023-01-19T18:01:30.927Z,94066.47
2023-01-19T18:03:59.070Z,94067.59
2023-01-19T18:06:26.156Z,94070.19
2023-01-19T18:08:53.436Z,94071.47
2023-01-19T18:11:21.714Z,94072.59
2023-01-19T18:13:50.472Z,94065.16
2023-01-19T18:16:25.592Z,94066.91
2023-01-19T18:18:54.696Z,94072.09
2023-01-19T18:21:23.955Z,94067.75
2023-01-19T18:23:51.770Z,94062.06
2023-01-19T18:26:21.862Z,94064.00
2023-01-19T18:28:49.638Z,94063.22
2023-01-19T18:31:18.941Z,94067.56
2023-01-19T18:33:48.121Z,94073.56
2023-01-19T18:36:16.677Z,94064.16
2023-01-19T18:38:45.176Z,94066.94
2023-01-19T18:41:18.250Z,94071.44
2023-01-19T18:43:46.599Z,94066.72
2023-01-19T18:46:15.160Z,94068.53
2023-01-19T18:48:42.463Z,94068.03
2023-01-19T18:51:13.041Z,94057.19
2023-01-19T18:53:40.967Z,94061.88
2023-01-19T18:56:11.811Z,94054.28
2023-01-19T18:58:39.257Z,94055.53
2023-01-19T19:01:18.280Z,94056.66
2023-01-19T19:03:45.376Z,94054.53
2023-01-19T19:06:12.787Z,94056.34
2023-01-19T19:08:40.012Z,94054.06
2023-01-19T19:11:08.458Z,94056.00
2023-01-19T19:13:35.588Z,94055.50
2023-01-19T19:16:05.812Z,94054.84
2023-01-19T19:18:35.641Z,94060.19
2023-01-19T19:21:12.165Z,94060.31
2023-01-19T19:23:39.383Z,94059.69
2023-01-19T19:26:10.054Z,94064.19
2023-01-19T19:28:40.539Z,94064.34
2023-01-19T19:31:11.996Z,94065.59
2023-01-19T19:33:40.336Z,94069.31
2023-01-19T19:36:09.256Z,94067.69
2023-01-19T19:38:36.876Z,94068.81
2023-01-19T19:41:16.209Z,94070.09
2023-01-19T19:43:43.266Z,94060.72
2023-01-19T19:46:14.642Z,94062.50
2023-01-19T19:48:42.448Z,94067.00
2023-01-19T19:51:18.862Z,94060.22
2023-01-19T19:53:49.579Z,94064.59
2023-01-19T19:56:21.149Z,94053.59
2023-01-19T19:58:50.137Z,94051.97
2023-01-19T20:01:28.066Z,94052.94
2023-01-19T20:03:58.720Z,94059.22
2023-01-19T20:06:27.406Z,94055.00
2023-01-19T20:08:56.352Z,94056.97
2023-01-19T20:11:28.188Z,94062.91
2023-01-19T20:13:55.435Z,94063.25
2023-01-19T20:16:23.695Z,94066.91
2023-01-19T20:18:54.248Z,94072.22
2023-01-19T20:21:28.469Z,94074.81
2023-01-19T20:24:00.229Z,94082.72
2023-01-19T20:26:31.414Z,94084.00
2023-01-19T20:29:11.916Z,94088.50
2023-01-19T20:31:52.764Z,94088.78
2023-01-19T20:34:26.246Z,94090.06
2023-01-19T20:36:54.222Z,94101.66
2023-01-19T20:39:23.558Z,94090.66
2023-01-19T20:41:52.470Z,94089.38
2023-01-19T20:44:25.181Z,94085.59
2023-01-19T20:46:53.573Z,94090.25
2023-01-19T20:49:20.911Z,94088.94
2023-01-19T20:51:48.283Z,94094.56
2023-01-19T20:54:18.768Z,94090.63
2023-01-19T20:56:45.877Z,94089.31
2023-01-19T20:59:13.428Z,94087.19
2023-01-19T21:01:41.735Z,94094.56
2023-01-19T21:04:11.190Z,94094.06
2023-01-19T21:06:39.215Z,94095.31
2023-01-19T21:09:07.206Z,94097.81
2023-01-19T21:11:35.677Z,94098.25
2023-01-19T21:14:02.992Z,94105.47
2023-01-19T21:16:33.659Z,94096.28
2023-01-19T21:19:01.223Z,94103.66
2023-01-19T21:21:31.497Z,94092.94
2023-01-19T21:24:01.272Z,94091.63
2023-01-19T21:26:30.137Z,94086.78
2023-01-19T21:29:01.687Z,94081.22
2023-01-19T21:31:29.176Z,94067.81
2023-01-19T21:33:57.721Z,94078.59
2023-01-19T21:36:25.024Z,94087.41
2023-01-19T21:38:52.425Z,94096.22
2023-01-19T21:41:20.110Z,94102.50
2023-01-19T21:43:47.614Z,94101.97
2023-01-19T21:46:28.920Z,94095.34
2023-01-19T21:48:58.251Z,94094.03
2023-01-19T21:51:25.869Z,94091.88
2023-01-19T21:53:54.990Z,94087.16
2023-01-19T21:56:22.974Z,94086.91
2023-01-19T21:58:49.953Z,94084.78
2023-01-19T22:01:17.146Z,94088.88
2023-01-19T22:03:44.357Z,94096.34
2023-01-19T22:06:14.293Z,94100.47
2023-01-19T22:08:42.379Z,94118.91
2023-01-19T22:11:12.728Z,94117.69
2023-01-19T22:13:41.198Z,94118.94
2023-01-19T22:16:12.170Z,94119.03
2023-01-19T22:18:44.146Z,94126.13
2023-01-19T22:21:21.290Z,94127.31
2023-01-19T22:23:51.145Z,94123.41
2023-01-19T22:26:19.007Z,94138.31
2023-01-19T22:28:46.576Z,94135.06
2023-01-19T22:31:17.296Z,94143.75
2023-01-19T22:33:45.114Z,94143.88
2023-01-19T22:36:27.235Z,94149.44
2023-01-19T22:38:56.612Z,94151.22
2023-01-19T22:41:34.349Z,94153.09
2023-01-19T22:44:05.587Z,94152.56
2023-01-19T22:46:35.431Z,94166.38
2023-01-19T22:49:03.395Z,94170.72
2023-01-19T22:51:32.529Z,94163.16
2023-01-19T22:53:59.929Z,94160.69
2023-01-19T22:56:29.920Z,94152.16
2023-01-19T22:58:58.631Z,94150.53
2023-01-19T23:01:35.057Z,94144.75
2023-01-19T23:04:04.450Z,94142.56
2023-01-19T23:06:34.801Z,94149.75
2023-01-19T23:09:06.042Z,94148.53
2023-01-19T23:11:37.850Z,94152.34
2023-01-19T23:14:11.497Z,94153.41
2023-01-19T23:16:38.571Z,94150.31
2023-01-19T23:19:06.410Z,94148.00
2023-01-19T23:21:33.969Z,94149.88
2023-01-19T23:24:03.600Z,94138.78
2023-01-19T23:26:38.239Z,94137.47
2023-01-19T23:29:10.534Z,94132.72
2023-01-19T23:31:40.009Z,94130.53
2023-01-19T23:34:10.445Z,94139.34
2023-01-19T23:36:40.256Z,94131.78
2023-01-19T23:39:13.252Z,94131.09
2023-01-19T23:41:40.492Z,94133.78
2023-01-19T23:44:07.809Z,94133.09
2023-01-19T23:46:35.037Z,94132.31
2023-01-19T23:49:02.075Z,94134.19
2023-01-19T23:51:31.436Z,94146.22
2023-01-19T23:54:00.108Z,94137.03
2023-01-19T23:56:33.600Z,94139.72
2023-01-19T23:59:08.323Z,94138.38
